Cincinnati, OH (45239)

9:53 AM EDT on August 04, 2015 (GMT -0400)
North College Hill | | Change Station
CLOSE
Current Station
Personal Weather Station
Location: Cincinnati, OH
Elevation: 840 ft
Nearby Weather Stations

Elev 840 ft 39.21 °N, 84.55 °W | Updated 35 seconds ago

Clear
Clear
76.1 °F
Feels Like 77 °F
N
0.0
Wind Variable Wind from NNE
Gusts 1.0 mph

Today
High -- | Low -- °F
--% Chance of Precip.
Yesterday
High -- | Low -- °F
Precip. -- in
6:41 AM 8:47 PM
Waning Gibbous, 77% visible
Pressure 29.98 in
Visibility 0.2 miles
Clouds Overcast 200 ft
Heat Index 77 °F
Dew Point 71 °F
Humidity 84%
Rainfall 0.00 in
Snow Depth Not available.
UV 0 out of 12
Pollen 6.60 out of 12
Air Quality Not available.
Flu Activity Not available.
SPECI KLUK 041200Z 00000KT M1/4SM R21L/1000V1800FT FG OVC002 19/19 A2998

More Conditions Fewer Conditions

Pressure 29.98 in
Visibility 0.2 miles
Clouds Overcast 200 ft
Heat Index 77 °F
Dew Point 71 °F
Humidity 84%
Rainfall 0.00 in
Snow Depth Not available.
UV 0 out of 12
Pollen 6.60 out of 12
Air Quality Not available.
Flu Activity Not available.
SPECI KLUK 041200Z 00000KT M1/4SM R21L/1000V1800FT FG OVC002 19/19 A2998

More Conditions Fewer Conditions

10-Day Weather Forecast

×

Almanac

Astronomy

Aug. 04, 2015 Rise Set
Actual Time
Civil Twilight
Nautical Twilight
Astronomical Twilight
Moon
Length of Visible Light
Length of Day
Tomorrow will be .
, % of the Moon is Illuminated

Today's Extremes

State Highs State Lows

Community

WunderPhotos

Upload Photos

1,843,912 photos uploaded!

WunderBlogs® & News

Nearby

Air Quality

  Air Quality AQ Index Pollutant
Not available.

Snow Depth

Station Depth Elevation

Earthquake Activity

City Distance Mag. Time & Date
Minimum magnitude displayed is 2.5.

Coastal Water Temperatures

Place Temperature

Stations

Nearby Weather Stations

Station Location Temp. Windchill Dew Point Humidity Wind Precip. Elev Updated Type